Time;durP1;ratioP1;P1;durP2;ratioP2;P2;SDS_P1;SDS_P2;PMS_P1;PMS_P2;Temp;Humidity;BMP_temperature;BMP_pressure;BME280_temperature;BME280_humidity;BME280_pressure;Samples;Min_cycle;Max_cycle;Signal;HPM_P1;HPM_P2
2023/02/13 00:01:24;;;;;;;27.63;22.07;;;;;;;6.61;100.00;103730.78;5114258;28;20063;-38
2023/02/13 00:03:49;;;;;;;26.35;20.45;;;;;;;6.64;100.00;103737.72;5114633;28;20439;-38
2023/02/13 00:06:14;;;;;;;29.73;21.33;;;;;;;6.56;100.00;103722.25;5114581;28;20031;-38
2023/02/13 00:08:40;;;;;;;27.23;21.40;;;;;;;6.64;100.00;103727.81;5114511;28;20410;-38
2023/02/13 00:11:05;;;;;;;25.57;20.57;;;;;;;6.65;100.00;103726.81;5114516;28;20090;-38
2023/02/13 00:13:33;;;;;;;27.07;20.10;;;;;;;6.68;100.00;103725.69;5114606;28;20031;-38
2023/02/13 00:16:02;;;;;;;25.38;20.23;;;;;;;6.63;100.00;103728.78;5114686;28;20645;-38
2023/02/13 00:18:29;;;;;;;26.60;20.90;;;;;;;6.68;100.00;103726.53;5114415;28;20094;-38
2023/02/13 00:21:03;;;;;;;27.60;20.83;;;;;;;6.69;100.00;103722.03;5114097;28;20024;-38
2023/02/13 00:23:30;;;;;;;26.52;19.83;;;;;;;6.72;100.00;103719.06;5113868;28;20024;-38
2023/02/13 00:25:56;;;;;;;28.40;20.98;;;;;;;6.68;100.00;103723.84;5114620;28;20386;-38
2023/02/13 00:28:21;;;;;;;;;;;;;;;6.74;100.00;103719.78;5114137;28;20031;-38
2023/02/13 00:30:47;;;;;;;24.48;18.83;;;;;;;6.68;100.00;103715.78;5114004;28;19916;-38
2023/02/13 00:33:12;;;;;;;26.87;21.50;;;;;;;6.67;100.00;103713.25;5113598;28;20028;-38
2023/02/13 00:35:37;;;;;;;30.40;21.80;;;;;;;6.59;100.00;103697.78;5113682;28;20023;-38
2023/02/13 00:38:03;;;;;;;27.77;22.03;;;;;;;6.57;100.00;103694.38;5113616;28;20032;-38
2023/02/13 00:40:28;;;;;;;30.03;21.10;;;;;;;6.61;100.00;103701.19;5113874;28;20116;-38
2023/02/13 00:42:53;;;;;;;27.23;21.53;;;;;;;6.61;100.00;103703.88;5112624;28;20063;-38
2023/02/13 00:45:19;;;;;;;30.03;21.00;;;;;;;6.61;100.00;103698.50;5114237;28;20058;-38
2023/02/13 00:47:44;;;;;;;27.67;22.27;;;;;;;6.58;100.00;103688.00;5113776;28;20028;-38
2023/02/13 00:50:09;;;;;;;28.60;21.43;;;;;;;6.62;100.00;103705.56;5113485;28;20488;-38
2023/02/13 00:52:35;;;;;;;29.25;21.20;;;;;;;6.64;100.00;103711.69;5114245;28;20024;-38
2023/02/13 00:55:00;;;;;;;24.73;20.63;;;;;;;6.64;100.00;103705.47;5114322;28;20043;-38
2023/02/13 00:57:26;;;;;;;30.83;22.13;;;;;;;6.62;100.00;103707.41;5113696;28;20023;-38
2023/02/13 00:59:51;;;;;;;25.50;20.10;;;;;;;6.65;100.00;103709.84;5114069;28;20379;-38
2023/02/13 01:02:16;;;;;;;23.37;18.20;;;;;;;6.66;100.00;103707.00;5114017;28;20050;-38
2023/02/13 01:04:41;;;;;;;25.93;20.73;;;;;;;6.59;100.00;103707.69;5113996;28;20028;-38
2023/02/13 01:07:07;;;;;;;26.20;20.63;;;;;;;6.68;100.00;103712.25;5114251;28;20063;-38
2023/02/13 01:09:32;;;;;;;24.00;18.97;;;;;;;6.70;100.00;103707.59;5114542;28;20024;-38
2023/02/13 01:11:58;;;;;;;23.33;18.93;;;;;;;6.66;100.00;103701.63;5113202;28;20437;-38
2023/02/13 01:14:23;;;;;;;26.83;21.80;;;;;;;6.66;100.00;103711.53;5114158;28;20149;-38
2023/02/13 01:16:48;;;;;;;28.97;21.43;;;;;;;6.63;100.00;103698.34;5113309;28;20024;-38
2023/02/13 01:19:14;;;;;;;25.83;20.97;;;;;;;6.68;100.00;103706.88;5113994;28;20203;-38
2023/02/13 01:21:39;;;;;;;24.47;19.47;;;;;;;6.67;100.00;103706.03;5113457;28;20103;-38
2023/02/13 01:24:05;;;;;;;27.03;20.17;;;;;;;6.68;100.00;103712.25;5113275;28;20123;-38
2023/02/13 01:26:30;;;;;;;19.55;15.60;;;;;;;6.75;100.00;103707.19;5113230;28;20047;-38
2023/02/13 01:28:56;;;;;;;23.73;18.65;;;;;;;6.71;100.00;103698.53;5113443;28;20020;-38
2023/02/13 01:31:23;;;;;;;21.13;17.60;;;;;;;6.71;100.00;103699.38;5113139;28;20020;-38
2023/02/13 01:33:48;;;;;;;29.13;22.00;;;;;;;6.69;100.00;103700.53;5113271;28;20463;-39
2023/02/13 01:36:14;;;;;;;26.38;21.23;;;;;;;6.65;100.00;103701.78;5114234;28;20031;-38
2023/02/13 01:38:40;;;;;;;28.08;21.15;;;;;;;6.65;100.00;103694.56;5116705;28;20102;-38
2023/02/13 01:41:06;;;;;;;27.27;21.45;;;;;;;6.63;100.00;103690.28;5117785;28;20035;-38
2023/02/13 01:43:46;;;;;;;28.98;22.98;;;;;;;6.63;100.00;103701.03;5116890;28;20024;-38
2023/02/13 01:46:19;;;;;;;30.27;22.15;;;;;;;6.61;100.00;103703.03;5116914;28;20039;-38
2023/02/13 01:48:47;;;;;;;30.25;22.15;;;;;;;6.59;100.00;103691.56;5117296;27;20557;-37
2023/02/13 01:51:19;;;;;;;30.88;22.13;;;;;;;6.61;100.00;103692.28;5117285;28;20031;-37
2023/02/13 01:53:58;;;;;;;28.83;21.77;;;;;;;6.61;100.00;103686.91;5117190;28;20102;-37
2023/02/13 01:56:39;;;;;;;29.80;23.15;;;;;;;6.54;100.00;103681.22;5117240;28;20024;-37
2023/02/13 01:59:27;;;;;;;31.30;23.88;;;;;;;6.57;100.00;103686.31;5116670;28;20035;-37
2023/02/13 02:01:53;;;;;;;29.63;24.33;;;;;;;6.48;100.00;103680.88;5116957;28;20115;-38
2023/02/13 02:04:27;;;;;;;30.48;23.55;;;;;;;6.52;100.00;103682.31;5116588;28;20103;-37
2023/02/13 02:07:01;;;;;;;27.40;21.92;;;;;;;6.52;100.00;103688.56;5117326;28;20049;-37
2023/02/13 02:09:31;;;;;;;28.15;22.33;;;;;;;6.52;100.00;103683.19;5116934;28;20069;-37
2023/02/13 02:11:59;;;;;;;29.63;22.73;;;;;;;6.51;100.00;103684.16;5116322;28;20023;-37
2023/02/13 02:14:25;;;;;;;31.45;24.40;;;;;;;6.49;100.00;103677.22;5116282;28;20024;-37
2023/02/13 02:16:52;;;;;;;31.00;23.83;;;;;;;6.51;100.00;103686.00;5116582;28;20037;-37
2023/02/13 02:19:44;;;;;;;27.95;22.95;;;;;;;6.53;100.00;103684.03;5117343;28;20051;-37
2023/02/13 02:22:46;;;;;;;29.40;22.83;;;;;;;6.56;100.00;103686.44;5106996;28;20036;-38
2023/02/13 02:25:45;;;;;;;28.83;22.10;;;;;;;6.57;100.00;103686.31;5116373;28;20370;-38
2023/02/13 02:28:25;;;;;;;30.27;23.13;;;;;;;6.48;100.00;103678.19;5116021;28;20055;-38
2023/02/13 02:31:09;;;;;;;26.08;19.30;;;;;;;6.58;100.00;103687.16;5116256;28;20028;-38
2023/02/13 02:33:43;;;;;;;25.65;19.58;;;;;;;6.58;100.00;103677.25;5115842;28;20546;-38
2023/02/13 02:36:18;;;;;;;27.85;22.48;;;;;;;6.56;100.00;103673.84;5115631;28;20115;-38
2023/02/13 02:39:11;;;;;;;29.75;22.73;;;;;;;6.58;100.00;103676.41;5116347;28;20032;-38
2023/02/13 02:41:42;;;;;;;28.33;22.30;;;;;;;6.58;100.00;103673.72;5115778;28;20035;-38
2023/02/13 02:44:42;;;;;;;28.77;21.80;;;;;;;6.60;100.00;103669.06;5115618;28;20088;-38
2023/02/13 02:50:18;;;;;;;25.20;20.77;;;;;;;6.54;100.00;103664.22;5115946;28;20481;-38
2023/02/13 02:52:53;;;;;;;28.15;22.55;;;;;;;6.53;100.00;103667.91;5116322;28;20106;-38
2023/02/13 02:55:31;;;;;;;29.42;22.88;;;;;;;6.50;100.00;103668.19;5115146;28;20028;-38
2023/02/13 03:07:07;;;;;;;29.58;23.33;;;;;;;6.26;100.00;103663.13;5115307;28;20080;-38
2023/02/13 03:15:16;;;;;;;28.08;22.13;;;;;;;6.07;100.00;103674.59;5086352;28;20035;-42
2023/02/13 03:23:40;;;;;;;30.83;22.92;;;;;;;5.82;100.00;103678.50;5115541;28;20486;-38
2023/02/13 03:26:11;;;;;;;26.83;22.20;;;;;;;5.71;100.00;103668.69;5114714;28;20039;-38
2023/02/13 03:32:00;;;;;;;29.17;21.83;;;;;;;5.47;100.00;103668.91;5114848;28;20046;-38
2023/02/13 03:37:53;;;;;;;27.90;20.75;;;;;;;5.43;100.00;103672.84;5114536;28;20091;-38
2023/02/13 03:40:11;;;;;;;27.20;21.67;;;;;;;5.20;100.00;103666.69;5114963;28;20107;-38
2023/02/13 03:42:41;;;;;;;25.13;20.20;;;;;;;5.20;100.00;103676.56;5114904;28;20032;-38
2023/02/13 03:48:08;;;;;;;25.65;19.02;;;;;;;5.07;100.00;103672.19;5115104;28;20046;-37
2023/02/13 03:50:40;;;;;;;26.38;20.15;;;;;;;5.09;100.00;103674.78;5115033;28;20027;-37
2023/02/13 03:53:09;;;;;;;24.63;20.15;;;;;;;4.99;100.00;103680.03;5114624;28;20086;-37
2023/02/13 04:01:19;;;;;;;26.02;19.45;;;;;;;4.81;100.00;103679.69;5114900;28;20046;-37
2023/02/13 04:04:09;;;;;;;26.45;19.90;;;;;;;4.72;100.00;103667.03;5114271;27;20402;-37
2023/02/13 04:06:42;;;;;;;23.92;18.30;;;;;;;4.73;100.00;103679.44;5093196;28;20418;-37
2023/02/13 04:09:08;;;;;;;27.52;21.08;;;;;;;4.69;100.00;103679.84;5113995;28;20055;-37
2023/02/13 04:11:39;;;;;;;25.05;19.48;;;;;;;4.61;100.00;103683.13;5114433;28;20038;-37
2023/02/13 04:14:14;;;;;;;26.35;20.27;;;;;;;4.56;100.00;103682.63;5114166;28;20046;-37
2023/02/13 04:16:47;;;;;;;23.95;19.85;;;;;;;4.53;100.00;103678.34;5114764;28;20107;-38
2023/02/13 04:19:13;;;;;;;24.60;19.02;;;;;;;4.48;100.00;103677.88;5114385;28;20044;-38
2023/02/13 04:21:39;;;;;;;20.50;16.50;;;;;;;4.47;100.00;103676.19;5113954;28;20024;-38
2023/02/13 04:24:05;;;;;;;25.38;18.88;;;;;;;4.42;100.00;103673.00;5114110;28;20039;-38
2023/02/13 04:26:38;;;;;;;;;;;;;;;4.52;100.00;103671.31;5115159;28;20030;-37
2023/02/13 04:29:04;;;;;;;21.90;16.48;;;;;;;4.35;100.00;103664.63;5114481;28;19911;-38
2023/02/13 04:31:29;;;;;;;;;;;;;;;4.50;100.00;103681.31;5114073;28;20028;-38
2023/02/13 04:33:55;;;;;;;28.50;21.10;;;;;;;4.43;100.00;103682.75;5113875;28;19934;-37
2023/02/13 04:36:20;;;;;;;24.07;18.30;;;;;;;4.43;100.00;103669.34;5114424;28;20258;-37
2023/02/13 04:38:46;;;;;;;27.27;19.57;;;;;;;4.38;100.00;103675.06;5113914;28;20464;-37
2023/02/13 04:41:11;;;;;;;25.57;19.87;;;;;;;4.43;100.00;103671.19;5113931;28;20032;-37
2023/02/13 04:43:37;;;;;;;29.47;21.60;;;;;;;4.42;100.00;103664.97;5113887;28;20038;-37
2023/02/13 04:46:02;;;;;;;29.85;22.00;;;;;;;4.42;100.00;103664.13;5114487;28;20023;-37
2023/02/13 04:48:28;;;;;;;29.67;21.52;;;;;;;4.47;100.00;103667.28;5114043;28;20023;-38
2023/02/13 04:50:53;;;;;;;23.88;18.83;;;;;;;4.48;100.00;103666.31;5114414;28;20031;-38
2023/02/13 04:53:19;;;;;;;27.77;21.20;;;;;;;4.45;100.00;103675.47;5113790;28;20111;-37
2023/02/13 04:55:44;;;;;;;21.10;16.53;;;;;;;4.53;100.00;103664.97;5113124;28;20055;-37
2023/02/13 04:58:09;;;;;;;27.10;18.10;;;;;;;4.48;100.00;103669.84;5113484;28;20667;-40
2023/02/13 05:00:36;;;;;;;22.30;17.57;;;;;;;4.52;100.00;103662.41;5113960;28;20352;-37
2023/02/13 05:03:10;;;;;;;27.05;18.75;;;;;;;4.46;100.00;103655.72;5113638;28;20443;-40
2023/02/13 05:05:36;;;;;;;22.00;17.23;;;;;;;4.45;100.00;103650.50;5113956;28;20520;-37
2023/02/13 05:08:02;;;;;;;26.92;19.70;;;;;;;4.48;100.00;103650.22;5113928;28;20182;-37
2023/02/13 05:10:27;;;;;;;23.13;17.15;;;;;;;4.43;100.00;103647.91;5113932;27;20038;-37
2023/02/13 05:12:52;;;;;;;22.13;17.27;;;;;;;4.44;100.00;103655.00;5117006;28;20032;-37
2023/02/13 05:15:18;;;;;;;21.77;17.33;;;;;;;4.37;100.00;103659.97;5117824;28;20045;-37
2023/02/13 05:17:45;;;;;;;19.38;15.10;;;;;;;4.38;100.00;103664.34;5117227;28;20059;-37
2023/02/13 05:20:11;;;;;;;26.27;19.52;;;;;;;4.34;100.00;103654.88;5117364;28;20039;-37
2023/02/13 05:25:21;;;;;;;22.60;17.48;;;;;;;4.35;100.00;103659.25;5117922;28;20047;-37
2023/02/13 05:27:46;;;;;;;21.80;16.93;;;;;;;4.31;100.00;103651.56;5117008;28;20455;-37
2023/02/13 05:30:12;;;;;;;19.93;15.40;;;;;;;4.34;100.00;103657.56;5117553;28;20027;-37
2023/02/13 05:32:38;;;;;;;23.00;16.70;;;;;;;4.27;100.00;103650.97;5117036;28;20070;-37
2023/02/13 05:35:04;;;;;;;25.57;19.23;;;;;;;4.17;100.00;103638.41;5117941;28;20055;-38
2023/02/13 05:37:29;;;;;;;23.83;18.17;;;;;;;4.24;100.00;103640.47;5117042;27;20070;-38
2023/02/13 05:39:54;;;;;;;22.33;17.67;;;;;;;4.26;100.00;103643.91;5117117;28;20059;-38
2023/02/13 05:42:20;;;;;;;24.27;18.37;;;;;;;4.13;100.00;103640.47;5117129;28;20034;-38
2023/02/13 05:44:45;;;;;;;22.60;17.13;;;;;;;4.24;100.00;103656.53;5116868;28;20027;-37
2023/02/13 05:47:10;;;;;;;19.30;15.63;;;;;;;4.24;100.00;103655.69;5116884;28;20031;-38
2023/02/13 05:49:36;;;;;;;26.13;20.47;;;;;;;4.23;100.00;103644.13;5117165;28;20077;-38
2023/02/13 05:52:01;;;;;;;24.83;19.43;;;;;;;4.17;100.00;103654.50;5116393;28;20042;-38
2023/02/13 05:54:27;;;;;;;35.30;27.80;;;;;;;4.16;100.00;103640.25;5117592;28;20028;-38
2023/02/13 05:56:52;;;;;;;31.93;26.13;;;;;;;4.16;100.00;103653.63;5116722;28;20024;-37
2023/02/13 05:59:18;;;;;;;35.63;27.23;;;;;;;3.88;100.00;103634.34;5116661;28;20434;-37
2023/02/13 06:01:43;;;;;;;29.67;23.43;;;;;;;4.06;100.00;103663.38;5116319;28;20028;-37
2023/02/13 06:04:08;;;;;;;29.47;22.50;;;;;;;4.07;100.00;103665.06;5116548;28;20035;-38
2023/02/13 06:06:34;;;;;;;30.77;24.10;;;;;;;3.91;100.00;103665.41;5116185;28;20074;-37
2023/02/13 06:08:59;;;;;;;28.23;22.17;;;;;;;3.97;100.00;103664.06;5116198;28;20460;-37
2023/02/13 06:11:24;;;;;;;23.20;19.10;;;;;;;4.01;100.00;103660.19;5116150;28;20035;-37
2023/02/13 06:13:50;;;;;;;23.57;17.20;;;;;;;3.98;100.00;103655.06;5116677;28;20456;-37
2023/02/13 06:16:15;;;;;;;21.53;17.30;;;;;;;3.97;100.00;103653.38;5116600;28;20028;-37
2023/02/13 06:18:40;;;;;;;22.23;18.00;;;;;;;3.88;100.00;103661.13;5116650;28;20036;-37
2023/02/13 06:21:07;;;;;;;23.13;18.33;;;;;;;3.87;100.00;103662.09;5116765;28;20035;-37
2023/02/13 06:23:33;;;;;;;22.10;16.98;;;;;;;3.81;100.00;103646.53;5115995;28;20031;-37
2023/02/13 06:26:06;;;;;;;23.98;16.48;;;;;;;3.84;100.00;103656.97;5116967;28;20019;-38
2023/02/13 06:28:32;;;;;;;25.05;19.35;;;;;;;3.70;100.00;103642.94;5116856;28;20359;-38
2023/02/13 06:30:58;;;;;;;21.55;17.13;;;;;;;3.74;100.00;103665.84;5116069;28;20027;-37
2023/02/13 06:33:23;;;;;;;23.17;18.00;;;;;;;3.62;100.00;103662.28;5115918;28;20020;-37
2023/02/13 06:35:49;;;;;;;23.50;17.85;;;;;;;3.65;100.00;103662.03;5114993;28;20031;-37
2023/02/13 06:38:17;;;;;;;23.27;16.47;;;;;;;3.62;100.00;103662.28;5115697;28;20032;-37
2023/02/13 06:40:43;;;;;;;24.45;19.00;;;;;;;3.58;100.00;103674.19;5115815;28;20031;-37
2023/02/13 06:43:08;;;;;;;23.83;18.88;;;;;;;3.42;100.00;103660.25;5116057;28;20081;-37
2023/02/13 06:45:34;;;;;;;23.07;17.87;;;;;;;3.44;100.00;103666.34;5116352;28;20039;-37
2023/02/13 06:47:59;;;;;;;23.43;17.13;;;;;;;3.46;100.00;103680.44;5116508;28;20107;-37
2023/02/13 06:50:25;;;;;;;24.87;18.40;;;;;;;3.38;100.00;103677.50;5115863;28;20093;-37
2023/02/13 06:52:51;;;;;;;22.88;18.05;;;;;;;3.32;100.00;103674.31;5115458;28;20077;-38
2023/02/13 06:55:17;;;;;;;25.13;18.50;;;;;;;3.28;100.00;103678.19;5115208;28;20053;-38
2023/02/13 06:57:43;;;;;;;;;;;;;;;3.39;100.00;103679.22;5116186;28;20034;-37
2023/02/13 07:00:12;;;;;;;23.40;16.98;;;;;;;3.28;100.00;103672.84;5115139;28;20351;-37
2023/02/13 07:02:38;;;;;;;22.45;17.17;;;;;;;3.22;100.00;103677.75;5115290;28;20059;-37
2023/02/13 07:05:03;;;;;;;22.33;17.40;;;;;;;3.19;100.00;103681.53;5115653;28;20088;-37
2023/02/13 07:07:35;;;;;;;21.83;17.20;;;;;;;3.14;100.00;103664.13;5115255;28;20035;-37
2023/02/13 07:10:01;;;;;;;22.52;16.95;;;;;;;3.14;100.00;103672.16;5115345;28;20061;-37
2023/02/13 07:12:27;;;;;;;26.35;18.38;;;;;;;3.13;100.00;103673.97;5115174;28;20035;-37
2023/02/13 07:14:52;;;;;;;23.00;17.73;;;;;;;3.02;100.00;103665.88;5115124;28;20059;-37
2023/02/13 07:17:17;;;;;;;20.23;15.80;;;;;;;3.10;100.00;103683.06;5115091;28;20024;-37
2023/02/13 07:19:43;;;;;;;23.90;16.50;;;;;;;3.22;100.00;103685.78;5114881;28;20047;-38
2023/02/13 07:22:08;;;;;;;20.27;16.73;;;;;;;3.18;100.00;103690.53;5115545;28;20072;-37
2023/02/13 07:24:34;;;;;;;21.27;16.97;;;;;;;3.14;100.00;103691.72;5115598;28;20081;-38
2023/02/13 07:27:00;;;;;;;19.73;15.80;;;;;;;3.19;100.00;103694.06;5114644;28;20424;-38
2023/02/13 07:29:25;;;;;;;22.65;16.98;;;;;;;3.10;100.00;103688.41;5114834;28;20024;-38
2023/02/13 07:31:51;;;;;;;22.00;16.67;;;;;;;3.17;100.00;103690.63;5115655;28;20034;-38
2023/02/13 07:34:16;;;;;;;20.20;15.73;;;;;;;3.21;100.00;103668.91;5113659;28;20023;-38
2023/02/13 07:36:41;;;;;;;19.53;15.33;;;;;;;3.35;100.00;103687.44;5114418;28;20081;-37
2023/02/13 07:39:07;;;;;;;23.90;18.70;;;;;;;3.40;100.00;103691.59;5114670;28;20016;-37
2023/02/13 07:41:32;;;;;;;22.23;17.83;;;;;;;3.41;100.00;103682.59;5114377;28;20024;-37
2023/02/13 07:43:57;;;;;;;26.73;19.17;;;;;;;3.50;100.00;103680.09;5115224;28;20035;-37
2023/02/13 07:46:23;;;;;;;25.23;17.43;;;;;;;3.55;100.00;103682.44;5115160;28;20112;-37
2023/02/13 07:48:51;;;;;;;28.30;20.17;;;;;;;3.61;100.00;103685.50;5114843;28;20051;-37
2023/02/13 07:51:16;;;;;;;25.70;18.00;;;;;;;3.69;100.00;103687.59;5114501;28;20107;-37
2023/02/13 07:53:42;;;;;;;30.10;21.90;;;;;;;3.67;100.00;103700.25;5114724;28;20118;-37
2023/02/13 07:56:08;;;;;;;25.93;19.93;;;;;;;3.71;100.00;103691.03;5114474;28;20055;-37
2023/02/13 07:58:35;;;;;;;29.00;20.70;;;;;;;3.69;100.00;103692.94;5114310;28;20035;-37
2023/02/13 08:01:12;;;;;;;28.02;21.13;;;;;;;3.79;100.00;103703.81;5114633;28;20076;-37
2023/02/13 08:03:38;;;;;;;28.60;21.77;;;;;;;3.74;100.00;103696.13;5114257;28;20463;-37
2023/02/13 08:06:05;;;;;;;28.23;20.70;;;;;;;3.88;100.00;103714.66;5114374;28;20023;-38
2023/02/13 08:08:30;;;;;;;24.95;19.83;;;;;;;3.91;100.00;103692.19;5114522;28;20078;-38
2023/02/13 08:13:41;;;;;;;20.35;16.08;;;;;;;4.17;100.00;103698.19;5113865;28;20055;-37
2023/02/13 08:16:06;;;;;;;24.40;19.17;;;;;;;4.21;100.00;103693.47;5114435;28;20078;-37
2023/02/13 08:18:32;;;;;;;27.30;19.93;;;;;;;4.09;100.00;103674.66;5113988;28;20048;-37
2023/02/13 08:20:57;;;;;;;26.40;20.17;;;;;;;4.43;100.00;103714.03;5114462;28;20451;-37
2023/02/13 08:23:22;;;;;;;26.23;19.33;;;;;;;4.48;100.00;103726.09;5113762;28;20035;-38
2023/02/13 08:25:48;;;;;;;26.63;18.87;;;;;;;4.55;100.00;103730.03;5114060;28;20023;-38
2023/02/13 08:28:14;;;;;;;28.17;21.00;;;;;;;4.56;100.00;103723.69;5114035;28;20036;-38
2023/02/13 08:30:40;;;;;;;;;;;;;;;4.72;100.00;103725.16;5114749;28;20383;-37
2023/02/13 08:33:05;;;;;;;25.50;19.70;;;;;;;4.74;100.00;103724.06;5113813;28;19911;-38
2023/02/13 08:35:30;;;;;;;29.43;21.70;;;;;;;4.79;100.00;103731.75;5113964;28;20277;-38
2023/02/13 08:37:56;;;;;;;25.63;21.07;;;;;;;4.87;100.00;103729.28;5113617;28;20034;-38
2023/02/13 08:40:22;;;;;;;26.58;19.15;;;;;;;4.94;100.00;103719.78;5114775;28;20020;-38
2023/02/13 08:42:47;;;;;;;28.30;21.75;;;;;;;5.02;100.00;103727.19;5113884;28;20466;-38
2023/02/13 08:45:13;;;;;;;26.43;20.83;;;;;;;5.06;100.00;103723.28;5115999;28;20100;-38
2023/02/13 08:47:38;;;;;;;28.70;22.40;;;;;;;5.11;100.00;103731.81;5117851;28;20047;-38
2023/02/13 08:50:05;;;;;;;28.58;22.73;;;;;;;5.14;100.00;103727.06;5118101;28;20032;-38
2023/02/13 08:52:31;;;;;;;25.92;20.27;;;;;;;5.22;100.00;103729.13;5117669;28;20072;-38
2023/02/13 08:54:56;;;;;;;30.10;22.00;;;;;;;5.27;100.00;103728.72;5118692;28;20028;-37
2023/02/13 08:57:21;;;;;;;29.47;23.27;;;;;;;5.25;100.00;103717.28;5117597;28;20023;-37
2023/02/13 08:59:47;;;;;;;30.33;23.83;;;;;;;5.41;100.00;103723.06;5118084;28;20030;-37
2023/02/13 09:02:13;;;;;;;28.83;22.03;;;;;;;5.45;100.00;103735.28;5118064;28;20032;-37
2023/02/13 09:04:38;;;;;;;24.73;20.40;;;;;;;5.55;100.00;103724.63;5117693;28;20064;-38
2023/02/13 09:07:04;;;;;;;27.47;21.87;;;;;;;5.56;100.00;103716.47;5117320;28;20032;-37
2023/02/13 09:09:29;;;;;;;27.43;20.13;;;;;;;5.66;100.00;103727.25;5117639;28;20337;-37
2023/02/13 09:11:56;;;;;;;23.47;19.27;;;;;;;5.70;100.00;103723.34;5117639;27;20027;-37
2023/02/13 09:14:22;;;;;;;27.20;19.42;;;;;;;5.74;100.00;103724.78;5117131;28;20024;-37
2023/02/13 09:16:48;;;;;;;;;;;;;;;5.84;100.00;103725.72;5117603;28;20024;-36
2023/02/13 09:19:13;;;;;;;23.90;18.27;;;;;;;5.86;100.00;103721.09;5117588;28;20010;-38
2023/02/13 09:21:38;;;;;;;27.43;18.97;;;;;;;5.93;100.00;103730.34;5117007;28;20274;-38
2023/02/13 09:24:10;;;;;;;23.30;19.23;;;;;;;5.95;100.00;103714.09;5118219;28;20455;-37
2023/02/13 09:26:36;;;;;;;22.48;18.17;;;;;;;6.07;100.00;103731.88;5117607;27;20024;-37
2023/02/13 09:29:01;;;;;;;22.20;18.33;;;;;;;6.14;100.00;103724.13;5118394;28;20359;-37
2023/02/13 09:31:27;;;;;;;21.08;17.08;;;;;;;6.17;100.00;103723.88;5116971;28;20488;-37
2023/02/13 09:33:52;;;;;;;22.65;16.27;;;;;;;6.17;100.00;103716.66;5117719;28;20031;-37
2023/02/13 09:36:20;;;;;;;23.90;16.93;;;;;;;6.24;100.00;103718.81;5117982;27;20024;-37
2023/02/13 09:38:50;;;;;;;20.90;17.00;;;;;;;6.32;100.00;103729.75;5117051;28;20035;-37
2023/02/13 09:41:30;;;;;;;19.45;15.63;;;;;;;6.39;100.00;103723.75;5117642;28;20034;-38
2023/02/13 09:44:10;;;;;;;20.52;15.75;;;;;;;6.49;100.00;103729.16;5117288;28;20087;-38
2023/02/13 09:46:37;;;;;;;20.83;16.00;;;;;;;6.54;100.00;103734.13;5117552;28;20038;-38
2023/02/13 09:49:14;;;;;;;17.52;15.35;;;;;;;6.60;100.00;103731.75;5117097;28;20027;-38
2023/02/13 09:51:43;;;;;;;19.30;15.38;;;;;;;6.68;100.00;103729.22;5117188;28;20054;-38
2023/02/13 09:54:14;;;;;;;18.85;15.45;;;;;;;6.81;100.00;103730.84;5117496;28;20367;-38
2023/02/13 09:56:49;;;;;;;19.73;15.40;;;;;;;6.86;100.00;103728.59;5116456;27;20456;-38
2023/02/13 09:59:36;;;;;;;16.48;13.70;;;;;;;6.87;100.00;103725.75;5117003;28;20209;-37
2023/02/13 10:02:18;;;;;;;16.60;13.55;;;;;;;6.96;100.00;103718.72;5116899;28;20066;-38
2023/02/13 10:05:10;;;;;;;17.67;13.52;;;;;;;7.05;100.00;103733.19;5116931;28;20367;-38
2023/02/13 10:07:56;;;;;;;16.95;14.38;;;;;;;7.18;100.00;103736.50;5116703;28;20051;-37
2023/02/13 10:10:56;;;;;;;15.98;12.98;;;;;;;7.25;100.00;103742.16;5116469;28;20031;-38
2023/02/13 10:13:33;;;;;;;19.95;14.38;;;;;;;7.27;100.00;103743.75;5096891;28;20039;-37
2023/02/13 10:16:15;;;;;;;17.17;14.43;;;;;;;7.32;100.00;103748.69;5116308;28;20024;-38
2023/02/13 10:19:13;;;;;;;16.33;13.65;;;;;;;7.33;100.00;103743.19;5116459;28;20043;-37
2023/02/13 10:21:49;;;;;;;18.73;14.32;;;;;;;7.38;100.00;103738.25;5116144;28;20036;-37
2023/02/13 10:24:45;;;;;;;17.35;14.45;;;;;;;7.43;100.00;103735.13;5116758;27;20043;-37
2023/02/13 10:27:38;;;;;;;18.30;14.70;;;;;;;7.46;100.00;103734.81;5080630;28;20092;-37
2023/02/13 10:30:16;;;;;;;17.63;14.73;;;;;;;7.53;100.00;103727.06;5116100;28;20084;-37
2023/02/13 10:33:19;;;;;;;17.60;15.70;;;;;;;7.64;100.00;103732.31;5115677;28;20547;-37
2023/02/13 10:35:51;;;;;;;17.45;14.80;;;;;;;7.65;100.00;103723.22;5115937;28;20383;-37
2023/02/13 10:38:21;;;;;;;19.33;15.40;;;;;;;7.58;100.00;103714.03;5115601;28;20085;-37
2023/02/13 10:41:02;;;;;;;16.98;14.38;;;;;;;7.64;100.00;103703.53;5116344;28;20108;-37
2023/02/13 10:43:31;;;;;;;17.27;13.48;;;;;;;7.81;100.00;103714.56;5116381;28;20084;-38
2023/02/13 10:46:20;;;;;;;17.65;14.85;;;;;;;7.92;100.00;103720.66;5116352;28;20031;-38
2023/02/13 10:49:04;;;;;;;16.83;14.38;;;;;;;8.03;100.00;103719.66;5115667;28;20024;-37
2023/02/13 10:51:56;;;;;;;17.90;14.43;;;;;;;8.09;100.00;103702.06;5116229;28;20028;-37
2023/02/13 10:54:33;;;;;;;16.70;14.80;;;;;;;8.16;100.00;103713.97;5116372;28;20038;-37
2023/02/13 10:57:01;;;;;;;;;;;;;;;8.31;100.00;103715.22;5116621;28;20046;-38
2023/02/13 11:00:11;;;;;;;15.02;12.23;;;;;;;8.29;100.00;103709.09;5115533;28;19915;-37
2023/02/13 11:02:37;;;;;;;13.02;11.02;;;;;;;8.43;100.00;103705.97;5053154;28;20033;-38
2023/02/13 11:05:05;;;;;;;;;;;;;;;8.57;100.00;103706.50;5053654;28;20039;-37
2023/02/13 11:07:31;;;;;;;11.60;9.90;;;;;;;8.56;100.00;103705.66;5082857;28;19908;-37
2023/02/13 11:10:02;;;;;;;11.07;9.50;;;;;;;8.65;100.00;103710.16;5115891;28;20080;-38
2023/02/13 11:12:30;;;;;;;17.10;10.90;;;;;;;8.68;100.00;103692.81;5114857;28;20269;-38
2023/02/13 11:15:01;;;;;;;13.10;10.60;;;;;;;8.77;100.00;103694.63;5116040;28;20030;-38
2023/02/13 11:17:30;;;;;;;13.48;10.70;;;;;;;8.79;100.00;103694.50;5114789;28;20019;-38
2023/02/13 11:19:59;;;;;;;14.35;10.68;;;;;;;8.88;100.00;103691.75;5115448;28;20052;-38
2023/02/13 11:22:27;;;;;;;14.25;10.52;;;;;;;8.84;100.00;103673.31;5114999;28;20065;-38
2023/02/13 11:24:56;;;;;;;11.48;9.88;;;;;;;8.81;100.00;103660.94;5115044;28;20035;-38
2023/02/13 11:27:34;;;;;;;13.38;10.80;;;;;;;8.99;100.00;103679.88;5115463;28;20073;-38
2023/02/13 11:30:21;;;;;;;13.95;10.88;;;;;;;9.01;100.00;103670.63;5115738;28;20427;-37
2023/02/13 11:32:59;;;;;;;13.00;10.57;;;;;;;9.09;100.00;103656.38;5115111;28;20076;-37
2023/02/13 11:35:35;;;;;;;13.95;11.23;;;;;;;9.21;100.00;103657.00;5114550;28;20031;-37
2023/02/13 11:38:09;;;;;;;14.93;12.07;;;;;;;9.29;100.00;103665.19;5114890;28;20031;-38
2023/02/13 11:40:35;;;;;;;14.48;12.35;;;;;;;9.23;100.00;103650.44;5115050;28;20055;-38
2023/02/13 11:43:01;;;;;;;15.88;12.70;;;;;;;9.38;100.00;103655.31;5115225;28;20490;-38
2023/02/13 11:45:27;;;;;;;18.73;14.45;;;;;;;9.48;100.00;103659.63;5115508;28;20028;-37
2023/02/13 11:47:55;;;;;;;13.77;12.05;;;;;;;9.46;100.00;103650.81;5114603;28;20027;-37
2023/02/13 11:50:25;;;;;;;14.60;12.93;;;;;;;9.50;100.00;103649.50;5115414;28;20030;-38
2023/02/13 11:53:01;;;;;;;13.98;12.48;;;;;;;9.63;100.00;103661.78;5114674;28;20023;-38
2023/02/13 11:55:39;;;;;;;15.23;13.05;;;;;;;9.65;100.00;103654.34;5114477;28;20039;-37
2023/02/13 11:58:10;;;;;;;14.93;13.15;;;;;;;9.72;100.00;103661.69;5114425;28;20032;-37
2023/02/13 12:00:38;;;;;;;17.83;14.40;;;;;;;9.76;100.00;103663.06;5114076;28;20080;-37
2023/02/13 12:03:26;;;;;;;15.98;13.48;;;;;;;9.80;100.00;103659.03;5113982;28;20038;-37
2023/02/13 12:06:02;;;;;;;15.88;14.00;;;;;;;9.80;100.00;103647.38;5114642;28;20024;-37
2023/02/13 12:08:29;;;;;;;16.65;14.88;;;;;;;9.79;100.00;103648.38;5114244;28;20040;-37